Time;durP1;ratioP1;P1;durP2;ratioP2;P2;SDS_P1;SDS_P2;PMS_P1;PMS_P2;Temp;Humidity;BMP_temperature;BMP_pressure;BME280_temperature;BME280_humidity;BME280_pressure;Samples;Min_cycle;Max_cycle;Signal;HPM_P1;HPM_P2
2023/10/16 00:02:16;;;;;;;13.50;5.80;;;2.80;99.90;;;;;;5021927;28;20034;-64
2023/10/16 00:04:43;;;;;;;12.40;5.10;;;2.80;99.90;;;;;;5027056;28;20372;-65
2023/10/16 00:07:14;;;;;;;14.15;5.05;;;2.80;99.90;;;;;;5029858;28;20039;-65
2023/10/16 00:09:40;;;;;;;9.85;4.55;;;2.80;99.90;;;;;;5028631;28;20068;-64
2023/10/16 00:12:07;;;;;;;9.40;5.20;;;2.80;99.90;;;;;;5030569;28;20017;-64
2023/10/16 00:14:35;;;;;;;10.82;5.22;;;2.70;99.90;;;;;;5031547;28;20116;-65
2023/10/16 00:17:02;;;;;;;13.27;5.40;;;2.70;99.90;;;;;;5043432;28;20029;-64
2023/10/16 00:19:33;;;;;;;10.70;5.22;;;2.60;99.90;;;;;;5031909;28;20494;-63
2023/10/16 00:22:01;;;;;;;7.90;4.78;;;2.70;99.90;;;;;;5025714;28;20060;-65
2023/10/16 00:24:28;;;;;;;12.55;4.85;;;2.70;99.90;;;;;;5026277;28;20041;-64
2023/10/16 00:26:54;;;;;;;7.95;4.95;;;2.70;99.90;;;;;;5026987;28;20029;-63
2023/10/16 00:29:22;;;;;;;12.68;5.47;;;2.70;99.90;;;;;;5028684;28;20164;-64
2023/10/16 00:31:51;;;;;;;11.57;6.40;;;2.70;99.90;;;;;;5031111;28;20037;-64
2023/10/16 00:34:21;;;;;;;14.45;6.32;;;2.70;99.90;;;;;;5033648;28;20030;-64
2023/10/16 00:36:47;;;;;;;10.75;5.72;;;2.70;99.90;;;;;;5026194;28;20564;-65
2023/10/16 00:39:13;;;;;;;12.20;5.05;;;2.60;99.90;;;;;;5028924;28;20029;-65
2023/10/16 00:41:44;;;;;;;10.63;4.63;;;2.60;99.90;;;;;;5031693;28;20082;-64
2023/10/16 00:44:09;;;;;;;11.68;4.63;;;2.60;99.90;;;;;;5030753;28;20029;-64
2023/10/16 00:46:38;;;;;;;21.55;5.93;;;2.60;99.90;;;;;;5028413;28;20030;-64
2023/10/16 00:49:05;;;;;;;13.20;4.55;;;2.70;99.90;;;;;;5032413;28;20025;-64
2023/10/16 00:51:40;;;;;;;20.13;3.88;;;2.60;99.90;;;;;;5029524;28;20026;-64
2023/10/16 00:54:18;;;;;;;22.52;4.50;;;2.50;99.90;;;;;;5026169;28;20029;-65
2023/10/16 00:56:45;;;;;;;16.73;5.80;;;2.40;99.90;;;;;;5028559;28;20482;-64
2023/10/16 00:59:16;;;;;;;11.38;4.03;;;2.40;99.90;;;;;;5031781;28;20029;-65
2023/10/16 01:01:43;;;;;;;15.65;4.57;;;2.40;99.90;;;;;;5026937;28;20017;-66
2023/10/16 01:04:10;;;;;;;40.15;6.75;;;2.50;99.90;;;;;;5030535;28;20036;-64
2023/10/16 01:06:41;;;;;;;30.88;6.30;;;2.50;99.90;;;;;;5030440;28;20083;-64
2023/10/16 01:09:12;;;;;;;50.40;8.45;;;2.50;99.90;;;;;;5029803;28;20554;-64
2023/10/16 01:11:38;;;;;;;17.25;5.93;;;2.60;99.90;;;;;;5043954;28;20033;-64
2023/10/16 01:14:05;;;;;;;37.15;6.63;;;2.70;99.90;;;;;;5032132;28;20129;-64
2023/10/16 01:16:31;;;;;;;29.58;5.60;;;2.80;99.90;;;;;;5023653;28;20037;-64
2023/10/16 01:19:01;;;;;;;23.90;5.60;;;2.80;99.90;;;;;;5026326;28;20041;-64
2023/10/16 01:21:28;;;;;;;18.45;7.43;;;2.80;99.90;;;;;;5027422;28;20021;-64
2023/10/16 01:23:55;;;;;;;15.77;7.13;;;2.80;99.90;;;;;;5026805;28;20498;-65
2023/10/16 01:26:21;;;;;;;16.27;6.45;;;2.80;99.90;;;;;;5024449;28;20021;-64
2023/10/16 01:28:47;;;;;;;16.73;6.50;;;2.70;99.90;;;;;;5029362;28;20030;-64
2023/10/16 01:31:13;;;;;;;14.90;6.93;;;2.70;99.90;;;;;;5031484;28;20037;-64
2023/10/16 01:33:40;;;;;;;23.55;7.03;;;2.70;99.90;;;;;;5029601;28;20036;-64
2023/10/16 01:36:07;;;;;;;33.47;6.32;;;2.70;99.90;;;;;;5030130;28;20022;-67
2023/10/16 01:38:34;;;;;;;27.73;7.07;;;2.70;99.90;;;;;;5028893;28;20036;-65
2023/10/16 01:43:32;;;;;;;12.88;6.47;;;2.70;99.90;;;;;;5031709;28;20482;-65
2023/10/16 01:46:08;;;;;;;16.77;6.93;;;2.70;99.90;;;;;;5031711;28;20033;-65
2023/10/16 01:48:40;;;;;;;16.60;7.35;;;2.60;99.90;;;;;;5027633;28;20074;-64
2023/10/16 01:51:09;;;;;;;16.60;7.38;;;2.60;99.90;;;;;;5028727;28;20383;-65
2023/10/16 01:53:39;;;;;;;17.65;7.80;;;2.60;99.90;;;;;;5030402;28;20029;-65
2023/10/16 01:56:12;;;;;;;17.55;7.63;;;2.60;99.90;;;;;;5029144;28;20120;-65
2023/10/16 01:58:43;;;;;;;22.17;8.18;;;2.60;99.90;;;;;;5026828;28;20047;-65
2023/10/16 02:01:10;;;;;;;19.33;7.63;;;2.60;99.90;;;;;;5027950;28;20040;-65
2023/10/16 02:03:35;;;;;;;17.92;7.25;;;2.50;99.90;;;;;;5036563;28;20032;-65
2023/10/16 02:06:01;;;;;;;16.73;6.43;;;2.50;99.90;;;;;;5031993;28;20038;-65
2023/10/16 02:08:28;;;;;;;19.25;7.30;;;2.50;99.90;;;;;;5029129;28;20025;-65
2023/10/16 02:10:54;;;;;;;13.88;5.60;;;2.40;99.90;;;;;;5025635;28;20037;-65
2023/10/16 02:13:20;;;;;;;14.98;6.35;;;2.40;99.90;;;;;;5031338;28;20668;-65
2023/10/16 02:15:47;;;;;;;14.68;6.28;;;2.30;99.90;;;;;;5033665;28;20038;-65
2023/10/16 02:18:22;;;;;;;14.35;6.05;;;2.30;99.90;;;;;;5029614;28;20033;-64
2023/10/16 02:20:49;;;;;;;13.65;4.97;;;2.20;99.90;;;;;;5029451;28;20057;-65
2023/10/16 02:23:15;;;;;;;15.65;5.05;;;2.10;99.90;;;;;;5030498;28;20120;-65
2023/10/16 02:25:41;;;;;;;23.02;6.93;;;2.10;99.90;;;;;;5028099;28;20506;-65
2023/10/16 02:28:08;;;;;;;36.72;4.68;;;2.10;99.90;;;;;;5029905;28;20036;-64
2023/10/16 02:30:38;;;;;;;14.10;4.43;;;2.10;99.90;;;;;;5028214;28;20041;-65
2023/10/16 02:33:26;;;;;;;40.00;6.00;;;2.00;99.90;;;;;;5029506;28;20579;-65
2023/10/16 02:35:53;;;;;;;38.45;4.65;;;2.00;99.90;;;;;;5027952;28;20104;-64
2023/10/16 02:38:29;;;;;;;31.08;4.97;;;2.00;99.90;;;;;;5029866;28;20474;-65
2023/10/16 02:41:07;;;;;;;13.75;4.32;;;2.00;99.90;;;;;;5023200;28;20035;-64
2023/10/16 02:43:37;;;;;;;26.38;4.88;;;1.90;99.90;;;;;;5026939;28;20039;-65
2023/10/16 02:46:04;;;;;;;22.50;4.50;;;1.90;99.90;;;;;;5029940;28;20029;-65
2023/10/16 02:48:30;;;;;;;27.50;5.38;;;1.90;99.90;;;;;;5038973;28;20396;-65
2023/10/16 02:50:59;;;;;;;25.00;4.95;;;1.90;99.90;;;;;;5030800;28;20048;-64
2023/10/16 02:53:27;;;;;;;28.42;6.30;;;1.80;99.90;;;;;;5028079;28;20515;-65
2023/10/16 02:55:57;;;;;;;41.78;5.25;;;1.90;99.90;;;;;;5030642;28;20120;-65
2023/10/16 02:58:28;;;;;;;36.13;6.35;;;1.90;99.90;;;;;;5034228;28;20124;-65
2023/10/16 03:01:06;;;;;;;15.00;5.15;;;1.90;99.90;;;;;;5037048;28;20030;-65
2023/10/16 03:03:32;;;;;;;24.17;4.80;;;1.90;99.90;;;;;;5034388;28;20470;-65
2023/10/16 03:05:59;;;;;;;49.97;5.55;;;1.90;99.90;;;;;;5036880;28;20063;-65
2023/10/16 03:08:31;;;;;;;64.50;7.03;;;1.90;99.90;;;;;;5034243;28;20037;-64
2023/10/16 03:10:58;;;;;;;39.22;5.47;;;1.90;99.90;;;;;;5034430;28;21959;-64
2023/10/16 03:13:24;;;;;;;47.33;5.30;;;1.90;99.90;;;;;;5030964;28;20036;-64
2023/10/16 03:15:58;;;;;;;20.52;4.65;;;1.90;99.90;;;;;;5036503;28;20095;-64
2023/10/16 03:18:24;;;;;;;56.45;5.53;;;1.90;99.90;;;;;;5030597;28;20029;-65
2023/10/16 03:21:05;;;;;;;47.40;4.97;;;1.90;99.90;;;;;;5035441;28;20034;-65
2023/10/16 03:23:31;;;;;;;40.33;5.57;;;1.90;99.90;;;;;;5029452;28;20108;-65
2023/10/16 03:25:59;;;;;;;66.65;6.65;;;1.90;99.90;;;;;;5028166;28;20113;-64
2023/10/16 03:28:24;;;;;;;27.33;7.13;;;1.90;99.90;;;;;;5037703;28;20542;-65
2023/10/16 03:30:51;;;;;;;37.67;5.45;;;1.80;99.90;;;;;;5035388;28;20104;-65
2023/10/16 03:33:16;;;;;;;52.35;5.38;;;1.90;99.90;;;;;;5042102;28;20021;-65
2023/10/16 03:35:44;;;;;;;41.33;5.80;;;1.80;99.90;;;;;;5032523;28;20034;-64
2023/10/16 03:38:11;;;;;;;29.73;6.28;;;1.90;99.90;;;;;;5030969;28;20026;-64
2023/10/16 03:40:36;;;;;;;37.03;6.40;;;1.90;99.90;;;;;;5030039;28;20026;-65
2023/10/16 03:43:02;;;;;;;57.72;6.30;;;1.90;99.90;;;;;;5029052;28;20083;-65
2023/10/16 03:45:28;;;;;;;73.78;6.32;;;1.90;99.90;;;;;;5031979;28;20029;-65
2023/10/16 03:47:57;;;;;;;27.80;5.30;;;2.00;99.90;;;;;;5035236;28;20100;-64
2023/10/16 03:50:34;;;;;;;29.30;5.32;;;2.00;99.90;;;;;;5026593;28;20021;-65
2023/10/16 03:53:03;;;;;;;72.40;6.13;;;2.10;99.90;;;;;;5031088;28;20120;-65
2023/10/16 03:55:31;;;;;;;85.18;6.32;;;2.00;99.90;;;;;;5029491;28;20087;-65
2023/10/16 03:57:57;;;;;;;69.50;5.90;;;2.00;99.90;;;;;;5034556;28;20024;-65
2023/10/16 04:00:26;;;;;;;74.20;6.20;;;2.00;99.90;;;;;;5033667;28;20033;-64
2023/10/16 04:02:53;;;;;;;22.33;3.78;;;2.00;99.90;;;;;;5031760;28;20029;-65
2023/10/16 04:05:32;;;;;;;47.72;7.50;;;2.10;99.90;;;;;;5032744;28;20039;-65
2023/10/16 04:07:58;;;;;;;17.15;5.10;;;2.10;99.90;;;;;;5044731;28;20022;-65
2023/10/16 04:10:28;;;;;;;71.28;5.70;;;2.10;99.90;;;;;;5032912;28;20594;-65
2023/10/16 04:12:57;;;;;;;31.35;5.38;;;2.10;99.90;;;;;;5033356;28;20021;-65
2023/10/16 04:15:50;;;;;;;37.72;5.53;;;2.10;99.90;;;;;;5033601;28;20021;-65
2023/10/16 04:31:55;;;;;;;90.85;6.07;;;2.20;99.90;;;;;;5023913;28;20030;-64
2023/10/16 04:50:30;;;;;;;91.88;8.43;;;2.30;99.90;;;;;;5026933;28;20018;-65
2023/10/16 05:19:30;;;;;;;74.50;8.02;;;2.40;99.90;;;;;;5028226;28;20059;-65
2023/10/16 06:14:12;;;;;;;22.42;8.93;;;3.00;99.90;;;;;;5023002;28;19919;-65
2023/10/16 06:16:48;;;;;;;18.63;8.40;;;3.10;99.90;;;;;;5034920;28;20029;-64
2023/10/16 06:19:22;;;;;;;26.88;9.25;;;3.20;99.90;;;;;;5023159;28;20020;-65
2023/10/16 06:21:54;;;;;;;32.97;9.85;;;3.30;99.90;;;;;;5026091;28;20145;-65
2023/10/16 06:24:44;;;;;;;46.95;10.73;;;3.30;99.90;;;;;;5024950;28;20048;-65
2023/10/16 06:27:10;;;;;;;29.70;9.27;;;3.30;99.90;;;;;;5025896;28;20102;-64
2023/10/16 06:29:49;;;;;;;38.75;9.73;;;3.40;99.90;;;;;;5025585;28;20059;-65
2023/10/16 06:32:18;;;;;;;35.08;9.38;;;3.40;99.90;;;;;;5021673;28;20018;-65
2023/10/16 06:34:58;;;;;;;30.50;10.40;;;3.50;99.90;;;;;;5026982;28;20503;-64
2023/10/16 06:37:24;;;;;;;35.05;9.77;;;3.60;99.90;;;;;;5029596;28;20021;-65
2023/10/16 06:39:54;;;;;;;51.90;11.25;;;3.60;99.90;;;;;;5026365;28;20045;-64
2023/10/16 06:42:23;;;;;;;31.27;9.43;;;3.70;99.90;;;;;;5025863;28;20068;-65
2023/10/16 06:45:03;;;;;;;51.10;10.38;;;3.80;99.90;;;;;;5026541;28;20061;-65
2023/10/16 06:47:35;;;;;;;26.08;8.88;;;3.80;99.90;;;;;;5029139;28;20039;-65
2023/10/16 06:52:49;;;;;;;40.75;11.50;;;4.00;99.90;;;;;;5033998;28;20033;-65
2023/10/16 06:55:16;;;;;;;33.42;9.60;;;4.10;99.90;;;;;;5026461;28;20032;-65
2023/10/16 06:57:43;;;;;;;40.17;11.80;;;4.10;99.90;;;;;;5030666;28;20013;-66
2023/10/16 07:00:21;;;;;;;34.20;10.10;;;4.20;99.90;;;;;;5026491;28;20113;-65
2023/10/16 07:02:47;;;;;;;44.67;9.85;;;4.30;99.90;;;;;;5023748;28;20164;-66
2023/10/16 07:05:14;;;;;;;54.22;9.85;;;4.40;99.90;;;;;;5024238;28;20105;-65
2023/10/16 07:07:39;;;;;;;36.60;10.32;;;4.50;99.90;;;;;;5021546;28;20022;-65
2023/10/16 07:10:13;;;;;;;31.27;10.80;;;4.50;99.90;;;;;;5040957;28;20094;-65
2023/10/16 07:12:56;;;;;;;24.98;9.73;;;4.50;99.90;;;;;;5030420;28;20583;-65
2023/10/16 07:15:25;;;;;;;60.85;11.57;;;4.70;99.90;;;;;;5044910;28;20033;-65
2023/10/16 07:17:51;;;;;;;44.10;9.45;;;4.60;99.90;;;;;;5026376;28;20021;-64
2023/10/16 07:20:51;;;;;;;30.00;9.20;;;4.60;99.90;;;;;;5030501;28;20026;-65
2023/10/16 07:23:10;;;;;;;48.97;11.15;;;4.70;99.90;;;;;;5031681;28;20037;-65
2023/10/16 07:25:54;;;;;;;54.08;10.55;;;4.70;99.90;;;;;;5030088;28;20524;-65
2023/10/16 07:28:23;;;;;;;82.20;11.40;;;4.70;99.90;;;;;;5031836;28;20544;-65
2023/10/16 07:30:51;;;;;;;43.55;10.52;;;4.70;99.90;;;;;;5045056;28;20034;-65
2023/10/16 07:33:17;;;;;;;50.33;10.40;;;4.70;99.90;;;;;;5029912;28;20486;-65
2023/10/16 07:35:47;;;;;;;33.72;9.30;;;4.80;99.90;;;;;;5019510;28;20034;-65
2023/10/16 07:38:19;;;;;;;23.50;10.48;;;4.80;99.90;;;;;;5027388;28;20487;-65
2023/10/16 07:41:05;;;;;;;51.88;10.35;;;4.90;99.90;;;;;;5025878;28;20068;-65
2023/10/16 07:43:34;;;;;;;53.78;11.20;;;4.90;99.90;;;;;;5031548;28;20045;-65
2023/10/16 07:46:18;;;;;;;51.53;11.25;;;4.90;99.90;;;;;;5029095;28;20043;-65
2023/10/16 07:48:46;;;;;;;37.30;10.38;;;5.10;99.90;;;;;;5032891;28;20107;-66
2023/10/16 07:51:14;;;;;;;59.25;11.40;;;5.10;99.90;;;;;;5034259;28;20032;-65
2023/10/16 07:53:40;;;;;;;41.63;11.52;;;5.20;99.90;;;;;;5031834;28;20112;-66
2023/10/16 07:56:19;;;;;;;37.75;12.50;;;5.20;99.90;;;;;;5033032;28;20120;-65
2023/10/16 07:58:49;;;;;;;45.08;11.95;;;5.30;99.90;;;;;;5032410;28;20116;-65
2023/10/16 08:03:41;;;;;;;87.22;12.80;;;5.40;99.90;;;;;;5037910;28;20433;-65
2023/10/16 08:06:12;;;;;;;48.95;10.65;;;5.40;99.90;;;;;;5026255;28;20132;-65
2023/10/16 08:08:39;;;;;;;43.40;11.88;;;5.50;99.90;;;;;;5031693;28;20032;-65
2023/10/16 08:11:14;;;;;;;62.97;12.32;;;5.60;99.90;;;;;;5029610;28;20037;-65
2023/10/16 08:13:46;;;;;;;105.00;14.23;;;5.60;99.90;;;;;;5033429;28;20483;-65
2023/10/16 08:16:24;;;;;;;25.45;11.57;;;5.50;99.90;;;;;;5028502;28;20026;-65
2023/10/16 08:18:52;;;;;;;37.78;12.10;;;5.60;99.90;;;;;;5031271;28;20437;-65
2023/10/16 08:21:25;;;;;;;49.55;12.35;;;5.70;99.90;;;;;;5032523;28;20075;-65
2023/10/16 08:23:53;;;;;;;36.85;11.48;;;5.70;99.90;;;;;;5029544;28;20100;-65
2023/10/16 08:26:28;;;;;;;35.17;11.90;;;5.70;99.90;;;;;;5027347;28;20024;-65
2023/10/16 08:29:11;;;;;;;29.02;11.90;;;5.80;99.90;;;;;;5029232;28;20113;-65
2023/10/16 08:31:41;;;;;;;33.03;12.63;;;5.80;99.90;;;;;;5027821;28;20022;-65
2023/10/16 08:34:13;;;;;;;29.90;12.10;;;5.90;99.90;;;;;;5033288;28;20026;-65
2023/10/16 08:36:39;;;;;;;38.20;13.85;;;6.00;99.90;;;;;;5033075;28;20510;-64
2023/10/16 08:39:15;;;;;;;35.92;12.45;;;6.10;99.90;;;;;;5030805;28;20025;-64
2023/10/16 08:41:45;;;;;;;35.58;12.70;;;6.20;99.90;;;;;;5031082;28;20112;-64
2023/10/16 08:44:24;;;;;;;38.50;13.55;;;6.10;99.90;;;;;;5033439;28;20100;-65
2023/10/16 08:47:16;;;;;;;29.10;12.20;;;6.20;99.90;;;;;;5021328;28;20088;-65
2023/10/16 08:49:40;;;;;;;27.88;10.95;;;6.30;99.90;;;;;;5034643;28;20033;-64
2023/10/16 08:52:08;;;;;;;35.60;13.73;;;6.40;99.90;;;;;;5031225;28;20025;-65
2023/10/16 08:55:00;;;;;;;31.85;13.30;;;6.30;99.90;;;;;;5032923;28;20048;-64
2023/10/16 08:57:26;;;;;;;31.73;11.45;;;6.40;99.90;;;;;;5049621;28;20021;-64
2023/10/16 08:59:54;;;;;;;27.17;10.90;;;6.60;99.90;;;;;;5030501;28;20033;-64
2023/10/16 09:02:24;;;;;;;26.75;11.32;;;6.70;99.90;;;;;;5032744;28;20558;-64
2023/10/16 09:04:52;;;;;;;29.95;11.30;;;6.80;99.90;;;;;;5031842;28;20021;-64
2023/10/16 09:07:19;;;;;;;27.48;12.02;;;6.90;99.90;;;;;;5031759;28;20025;-65
2023/10/16 09:09:53;;;;;;;26.50;11.00;;;6.90;99.90;;;;;;5029226;28;20029;-64
2023/10/16 09:12:28;;;;;;;25.33;10.77;;;7.10;99.90;;;;;;5026701;28;20036;-64
2023/10/16 09:15:06;;;;;;;25.80;10.55;;;6.90;99.90;;;;;;5031249;28;20573;-65
2023/10/16 09:17:36;;;;;;;20.83;10.88;;;6.90;99.90;;;;;;5032416;28;20021;-65
2023/10/16 09:20:17;;;;;;;29.17;11.70;;;7.20;99.90;;;;;;5032999;28;20025;-65
2023/10/16 09:22:45;;;;;;;25.08;10.52;;;7.30;99.90;;;;;;5034618;28;20084;-65
2023/10/16 09:25:15;;;;;;;24.45;10.50;;;7.30;99.90;;;;;;5031702;28;20032;-65
2023/10/16 09:27:42;;;;;;;23.15;10.80;;;7.40;99.90;;;;;;5027715;28;20105;-64
2023/10/16 09:30:17;;;;;;;27.40;11.50;;;7.50;99.90;;;;;;5023801;28;20072;-64
2023/10/16 09:32:43;;;;;;;25.70;12.40;;;7.50;99.90;;;;;;5034885;28;20565;-65
2023/10/16 09:35:12;;;;;;;26.23;11.43;;;7.50;99.90;;;;;;5033682;28;20025;-65
2023/10/16 09:37:40;;;;;;;23.25;11.68;;;7.60;99.90;;;;;;5034053;28;20049;-65
2023/10/16 09:40:35;;;;;;;22.10;10.73;;;7.60;99.90;;;;;;5025029;28;20461;-65
2023/10/16 09:43:05;;;;;;;23.85;10.63;;;7.60;99.90;;;;;;5028217;28;20398;-64
2023/10/16 09:45:32;;;;;;;18.65;10.65;;;7.60;99.90;;;;;;5033173;28;20425;-66
2023/10/16 09:48:07;;;;;;;23.40;11.25;;;7.80;99.90;;;;;;5030488;28;20040;-65
2023/10/16 09:50:34;;;;;;;18.33;9.93;;;7.60;99.90;;;;;;5033261;28;20096;-64
2023/10/16 09:53:01;;;;;;;22.55;11.15;;;7.50;99.90;;;;;;5032173;28;20028;-64
2023/10/16 09:55:30;;;;;;;27.65;10.98;;;7.40;99.90;;;;;;5032662;28;20021;-64
2023/10/16 09:58:01;;;;;;;21.58;10.63;;;7.40;99.90;;;;;;5034030;28;20014;-64
2023/10/16 10:03:12;;;;;;;25.27;11.15;;;7.70;99.90;;;;;;5032655;28;20052;-64
2023/10/16 10:06:09;;;;;;;19.75;9.75;;;7.70;99.90;;;;;;5034288;28;20063;-65
2023/10/16 10:09:41;;;;;;;21.77;10.02;;;7.60;99.90;;;;;;5023702;28;20026;-64
2023/10/16 10:12:05;;;;;;;21.27;8.95;;;7.50;99.90;;;;;;5021166;28;20037;-65
2023/10/16 10:14:39;;;;;;;21.73;10.38;;;7.60;99.90;;;;;;5047253;28;20390;-65
2023/10/16 10:17:09;;;;;;;21.35;9.30;;;7.70;99.90;;;;;;5031484;28;20032;-64
2023/10/16 10:19:41;;;;;;;23.90;10.05;;;8.00;99.90;;;;;;5031374;28;20861;-65
2023/10/16 10:22:27;;;;;;;17.00;9.10;;;8.10;99.90;;;;;;5032069;28;20402;-64
2023/10/16 10:25:29;;;;;;;18.15;8.18;;;8.30;99.90;;;;;;5014754;28;20064;-64
2023/10/16 10:28:09;;;;;;;18.35;8.23;;;8.30;99.90;;;;;;5039758;28;20108;-64
2023/10/16 10:30:39;;;;;;;17.40;9.20;;;8.40;99.90;;;;;;5028171;28;20098;-64
2023/10/16 10:33:06;;;;;;;21.83;10.38;;;8.60;99.90;;;;;;5029021;28;20445;-65
2023/10/16 10:35:43;;;;;;;17.83;9.40;;;8.50;99.90;;;;;;5013434;28;20033;-64
2023/10/16 10:38:17;;;;;;;21.38;10.65;;;8.50;99.90;;;;;;5028035;28;20018;-65
2023/10/16 10:41:06;;;;;;;20.95;10.43;;;8.60;99.90;;;;;;5023647;28;20037;-64
2023/10/16 10:43:46;;;;;;;15.73;8.68;;;8.60;99.90;;;;;;5029620;28;20072;-64
2023/10/16 10:46:21;;;;;;;14.38;8.70;;;9.00;99.90;;;;;;5039996;28;20040;-64
2023/10/16 10:48:47;;;;;;;15.70;7.97;;;9.30;99.90;;;;;;5029730;28;20108;-65
2023/10/16 10:51:15;;;;;;;15.35;8.75;;;9.30;99.90;;;;;;5030347;28;20108;-65
2023/10/16 10:53:54;;;;;;;15.07;9.07;;;9.40;99.90;;;;;;5036879;28;20021;-64
2023/10/16 10:56:23;;;;;;;12.95;7.70;;;9.50;99.90;;;;;;5029493;28;20531;-64
2023/10/16 10:58:49;;;;;;;16.63;8.15;;;9.70;99.90;;;;;;5031633;28;20045;-64
2023/10/16 11:01:33;;;;;;;18.33;7.63;;;9.70;99.90;;;;;;5034358;28;20052;-65
2023/10/16 11:04:01;;;;;;;15.77;7.57;;;9.70;99.90;;;;;;5032653;28;20371;-65
2023/10/16 11:06:41;;;;;;;15.40;8.63;;;9.60;99.90;;;;;;5037803;28;20037;-65
2023/10/16 11:09:13;;;;;;;13.73;8.25;;;9.80;99.90;;;;;;5032437;28;20021;-64
2023/10/16 11:11:39;;;;;;;16.00;8.32;;;9.90;99.90;;;;;;5030593;28;20108;-65
2023/10/16 11:14:07;;;;;;;14.85;8.02;;;9.90;99.90;;;;;;5026413;28;20093;-65
2023/10/16 11:16:40;;;;;;;27.23;7.85;;;10.20;99.90;;;;;;5034010;28;20100;-64
2023/10/16 11:19:08;;;;;;;14.73;7.45;;;10.10;99.90;;;;;;5027411;28;20475;-64
2023/10/16 11:21:39;;;;;;;18.30;9.25;;;10.20;99.90;;;;;;5030069;28;20506;-65
2023/10/16 11:24:06;;;;;;;12.95;7.50;;;10.40;99.90;;;;;;5022677;28;20045;-64
2023/10/16 11:26:32;;;;;;;16.52;7.97;;;10.80;99.90;;;;;;5031233;28;20119;-65
2023/10/16 11:29:00;;;;;;;15.05;7.22;;;11.10;99.90;;;;;;5034628;28;20025;-64
2023/10/16 11:31:26;;;;;;;12.63;7.15;;;10.90;99.90;;;;;;5032670;28;20029;-65
2023/10/16 11:34:02;;;;;;;11.63;7.03;;;11.00;99.90;;;;;;5032004;28;20569;-64
2023/10/16 11:36:29;;;;;;;18.73;8.77;;;10.90;99.90;;;;;;5036144;28;20091;-64
2023/10/16 11:38:59;;;;;;;15.80;7.50;;;10.50;99.90;;;;;;5035683;28;20436;-66
2023/10/16 11:41:26;;;;;;;12.20;7.15;;;10.70;99.90;;;;;;5030376;28;20414;-64
2023/10/16 11:43:53;;;;;;;12.75;7.32;;;10.80;99.90;;;;;;5033391;28;20018;-63
2023/10/16 11:46:34;;;;;;;11.85;6.70;;;10.90;99.90;;;;;;5033788;28;20435;-64
2023/10/16 11:52:08;;;;;;;11.88;6.63;;;10.90;99.90;;;;;;5031137;28;20402;-65
2023/10/16 11:54:35;;;;;;;10.85;6.70;;;10.60;99.90;;;;;;5027944;28;20029;-63
2023/10/16 11:57:01;;;;;;;14.45;5.78;;;10.50;99.90;;;;;;5045747;28;20034;-64
2023/10/16 11:59:28;;;;;;;14.70;7.22;;;10.60;99.90;;;;;;5032599;28;20024;-64
2023/10/16 12:01:59;;;;;;;11.07;6.35;;;10.60;99.90;;;;;;5030357;28;20017;-64
2023/10/16 12:04:26;;;;;;;11.57;6.53;;;10.50;99.90;;;;;;5032929;28;20068;-64
2023/10/16 12:06:52;;;;;;;11.35;6.32;;;10.60;99.90;;;;;;5028168;28;20036;-64
2023/10/16 12:09:20;;;;;;;10.23;5.93;;;10.40;99.90;;;;;;5025781;28;20116;-64
2023/10/16 12:11:51;;;;;;;13.57;5.70;;;10.40;99.90;;;;;;5026342;28;20036;-64
2023/10/16 12:14:18;;;;;;;11.98;5.22;;;10.60;99.90;;;;;;5025366;28;20028;-64
2023/10/16 12:16:45;;;;;;;9.68;5.65;;;10.50;99.90;;;;;;5029785;28;20099;-66
2023/10/16 12:19:12;;;;;;;7.85;5.25;;;10.50;99.90;;;;;;5028637;28;20022;-64
2023/10/16 12:21:38;;;;;;;13.30;5.85;;;10.60;99.90;;;;;;5032913;28;20480;-65
2023/10/16 12:24:04;;;;;;;11.77;4.80;;;10.50;99.90;;;;;;5034284;28;20063;-65
2023/10/16 12:26:30;;;;;;;12.38;5.53;;;10.40;99.90;;;;;;5019267;28;20125;-65
2023/10/16 12:28:59;;;;;;;12.02;5.72;;;10.50;99.90;;;;;;5029398;28;20021;-65
2023/10/16 12:31:25;;;;;;;14.52;7.05;;;10.60;99.90;;;;;;5028975;28;20036;-64
2023/10/16 12:33:51;;;;;;;10.38;6.18;;;10.80;99.90;;;;;;5032599;28;20029;-65
2023/10/16 12:36:18;;;;;;;10.10;5.20;;;10.80;99.90;;;;;;5031140;28;20091;-64
2023/10/16 12:38:44;;;;;;;10.65;5.97;;;10.90;99.90;;;;;;5032010;28;20029;-65
2023/10/16 12:41:10;;;;;;;9.63;5.50;;;11.00;99.90;;;;;;5028989;28;20056;-65
2023/10/16 12:43:36;;;;;;;9.65;5.05;;;11.00;99.90;;;;;;5030805;28;20072;-64
2023/10/16 12:46:03;;;;;;;9.68;4.40;;;11.20;99.90;;;;;;5029071;28;20025;-66
2023/10/16 12:48:29;;;;;;;11.20;5.03;;;11.30;99.90;;;;;;5033785;28;20021;-64
2023/10/16 12:50:59;;;;;;;10.98;5.03;;;11.30;99.90;;;;;;5030607;28;20045;-65
2023/10/16 12:53:27;;;;;;;10.73;7.03;;;11.50;99.90;;;;;;5027911;28;20108;-65
2023/10/16 12:55:55;;;;;;;7.32;4.35;;;11.50;99.90;;;;;;5034614;28;20025;-64
2023/10/16 12:58:23;;;;;;;8.18;4.28;;;11.60;99.90;;;;;;5030340;28;20045;-65
2023/10/16 13:00:52;;;;;;;7.18;4.55;;;11.80;99.90;;;;;;5034939;28;20541;-64
2023/10/16 13:03:20;;;;;;;11.73;5.22;;;11.90;99.90;;;;;;5025108;28;20087;-64
2023/10/16 13:05:47;;;;;;;7.82;4.78;;;11.80;99.90;;;;;;5033114;28;20029;-65
2023/10/16 13:08:13;;;;;;;10.45;5.38;;;11.60;99.90;;;;;;5031215;28;20060;-64
2023/10/16 13:10:39;;;;;;;8.73;4.57;;;11.70;99.90;;;;;;5028424;28;20479;-65
2023/10/16 13:13:05;;;;;;;8.50;4.43;;;11.90;99.90;;;;;;5028762;28;20025;-64
2023/10/16 13:15:31;;;;;;;6.07;3.78;;;11.90;99.90;;;;;;5031068;28;20402;-65
2023/10/16 13:18:01;;;;;;;9.02;4.70;;;11.80;99.90;;;;;;5035903;28;20029;-65
2023/10/16 13:20:27;;;;;;;6.30;4.43;;;11.70;99.90;;;;;;5037046;28;20475;-64
2023/10/16 13:22:54;;;;;;;10.60;4.70;;;11.80;99.90;;;;;;5044286;28;20433;-65
2023/10/16 13:25:31;;;;;;;9.80;4.10;;;11.70;99.90;;;;;;5014993;28;20046;-65
2023/10/16 13:27:58;;;;;;;8.68;4.60;;;11.80;99.90;;;;;;5022842;28;20083;-64
2023/10/16 13:30:25;;;;;;;8.82;4.55;;;11.80;99.90;;;;;;5027474;28;20066;-65
2023/10/16 13:32:52;;;;;;;7.70;4.40;;;11.80;99.90;;;;;;5026929;28;20067;-65
2023/10/16 13:35:20;;;;;;;11.77;5.22;;;11.90;99.90;;;;;;5036048;28;20041;-65
2023/10/16 13:37:47;;;;;;;7.45;4.75;;;12.00;99.90;;;;;;5032192;28;20022;-65
2023/10/16 13:40:21;;;;;;;7.40;3.83;;;12.00;99.90;;;;;;5029398;28;20022;-65
2023/10/16 13:42:51;;;;;;;11.27;5.43;;;12.00;99.90;;;;;;5035262;28;20028;-65
2023/10/16 13:45:18;;;;;;;9.52;5.63;;;11.90;99.90;;;;;;5029608;28;20076;-65
2023/10/16 13:47:45;;;;;;;7.45;4.32;;;11.90;99.90;;;;;;5030413;28;20394;-64
2023/10/16 13:50:13;;;;;;;9.63;5.35;;;11.80;99.90;;;;;;5033205;28;20017;-65
2023/10/16 13:52:46;;;;;;;20.42;6.10;;;11.90;99.90;;;;;;5036236;28;20021;-64
2023/10/16 13:55:13;;;;;;;9.00;4.83;;;11.80;99.90;;;;;;5026362;28;20021;-65
2023/10/16 13:57:42;;;;;;;6.57;4.53;;;11.90;99.90;;;;;;5030214;28;20286;-64
2023/10/16 14:00:28;;;;;;;6.88;4.72;;;11.80;99.90;;;;;;5027062;28;20070;-65
2023/10/16 14:02:55;;;;;;;6.97;4.53;;;11.60;99.90;;;;;;5033462;28;20040;-65
2023/10/16 14:05:21;;;;;;;7.95;4.40;;;11.60;99.90;;;;;;5025845;28;20212;-65
2023/10/16 14:07:46;;;;;;;8.90;4.85;;;11.50;99.90;;;;;;5029435;28;20108;-65
2023/10/16 14:10:13;;;;;;;8.93;4.53;;;11.60;99.90;;;;;;5030539;28;20036;-64
2023/10/16 14:12:41;;;;;;;11.10;6.07;;;11.50;99.90;;;;;;5030336;28;20048;-64
2023/10/16 14:15:15;;;;;;;13.43;6.80;;;11.40;99.90;;;;;;5024440;28;20058;-65
2023/10/16 14:17:44;;;;;;;13.93;6.90;;;11.30;99.90;;;;;;5030537;28;20025;-64
2023/10/16 14:20:29;;;;;;;10.50;6.15;;;11.30;99.90;;;;;;5028154;28;20029;-64
2023/10/16 14:22:55;;;;;;;9.35;5.70;;;11.30;99.90;;;;;;5026015;28;20025;-65
2023/10/16 14:25:27;;;;;;;10.35;4.85;;;11.30;99.90;;;;;;5012457;28;20046;-65
2023/10/16 14:27:55;;;;;;;7.55;5.70;;;11.20;99.90;;;;;;5021406;28;20033;-65
2023/10/16 14:30:25;;;;;;;8.77;5.05;;;11.20;99.90;;;;;;5025921;28;20030;-64
2023/10/16 14:32:51;;;;;;;6.27;4.50;;;11.20;99.90;;;;;;5021648;28;20029;-64
2023/10/16 14:35:17;;;;;;;14.10;5.30;;;11.10;99.90;;;;;;5022766;28;20044;-64
2023/10/16 14:37:43;;;;;;;6.13;3.97;;;11.10;99.90;;;;;;5021547;28;20395;-64
2023/10/16 14:40:09;;;;;;;8.25;5.35;;;11.10;99.90;;;;;;5025227;28;20021;-64
2023/10/16 14:42:34;;;;;;;10.68;5.20;;;11.20;99.90;;;;;;5029173;28;20013;-64
2023/10/16 14:45:02;;;;;;;9.70;4.50;;;11.20;99.90;;;;;;5023850;28;20113;-63
2023/10/16 14:47:27;;;;;;;8.05;4.50;;;11.20;99.90;;;;;;5025455;28;21675;-64
2023/10/16 14:49:54;;;;;;;6.35;4.43;;;11.20;99.90;;;;;;5030853;28;20742;-64
2023/10/16 14:52:20;;;;;;;9.48;5.65;;;11.20;99.90;;;;;;5024586;28;20052;-64
2023/10/16 14:54:45;;;;;;;7.05;4.50;;;11.20;99.90;;;;;;5030023;28;20029;-64
2023/10/16 14:57:11;;;;;;;7.05;3.90;;;11.10;99.90;;;;;;5036882;28;20033;-64
2023/10/16 14:59:37;;;;;;;7.78;4.53;;;11.10;99.90;;;;;;5034629;28;20025;-64
2023/10/16 15:02:04;;;;;;;6.97;4.68;;;11.00;99.90;;;;;;5028893;28;20080;-64